Time;durP1;ratioP1;P1;durP2;ratioP2;P2;SDS_P1;SDS_P2;PMS_P1;PMS_P2;Temp;Humidity;BMP_temperature;BMP_pressure;BME280_temperature;BME280_humidity;BME280_pressure;Samples;Min_cycle;Max_cycle;Signal;HPM_P1;HPM_P2
2023/05/21 00:01:35;;;;;;;0.68;0.40;;;12.50;99.90;;;;;;6101837;23;20426;-85
2023/05/21 00:04:05;;;;;;;1.05;0.40;;;12.50;99.90;;;;;;6127649;23;20373;-84
2023/05/21 00:06:35;;;;;;;0.40;0.30;;;12.50;99.90;;;;;;6126684;23;20381;-83
2023/05/21 00:09:03;;;;;;;2.33;0.52;;;12.50;99.90;;;;;;6151711;23;20381;-85
2023/05/21 00:11:31;;;;;;;0.50;0.40;;;12.50;99.90;;;;;;6151113;23;20432;-85
2023/05/21 00:13:58;;;;;;;1.50;0.60;;;12.50;99.90;;;;;;6151294;23;20779;-85
2023/05/21 00:16:25;;;;;;;0.73;0.30;;;12.50;99.90;;;;;;6125394;23;20382;-83
2023/05/21 00:18:53;;;;;;;0.40;0.30;;;12.50;99.90;;;;;;6127446;23;20449;-83
2023/05/21 00:21:24;;;;;;;1.03;0.30;;;12.40;99.90;;;;;;6127303;23;20528;-82
2023/05/21 00:23:55;;;;;;;1.40;0.30;;;12.50;99.90;;;;;;6150285;23;20370;-85
2023/05/21 00:26:23;;;;;;;0.45;0.30;;;12.40;99.90;;;;;;6151880;23;20374;-84
2023/05/21 00:28:49;;;;;;;1.55;0.57;;;12.40;99.90;;;;;;6126395;23;20384;-86
2023/05/21 00:31:17;;;;;;;2.05;1.00;;;12.50;99.90;;;;;;6126873;23;20429;-86
2023/05/21 00:33:44;;;;;;;1.40;0.30;;;12.50;99.90;;;;;;6126228;23;20702;-84
2023/05/21 00:36:13;;;;;;;0.47;0.22;;;12.50;99.90;;;;;;6126971;23;20847;-85
2023/05/21 00:38:44;;;;;;;0.60;0.20;;;12.50;99.90;;;;;;6126099;23;20404;-85
2023/05/21 00:41:12;;;;;;;0.50;0.20;;;12.50;99.90;;;;;;6151526;23;20366;-85
2023/05/21 00:43:40;;;;;;;1.90;0.20;;;12.50;99.90;;;;;;6150547;23;20429;-86
2023/05/21 00:46:16;;;;;;;0.40;0.20;;;12.50;99.90;;;;;;6127187;23;20781;-86
2023/05/21 00:48:45;;;;;;;0.35;0.20;;;12.60;99.90;;;;;;6149824;23;20424;-87
2023/05/21 00:51:17;;;;;;;0.75;0.30;;;12.60;99.90;;;;;;6151608;23;20370;-87
2023/05/21 00:53:45;;;;;;;1.00;0.50;;;12.60;99.90;;;;;;6126300;23;20745;-88
2023/05/21 00:56:12;;;;;;;0.52;0.25;;;12.60;99.90;;;;;;6127097;23;20394;-87
2023/05/21 00:58:40;;;;;;;0.88;0.30;;;12.60;99.90;;;;;;6151946;23;20733;-88
2023/05/21 01:01:12;;;;;;;1.33;0.32;;;12.60;99.90;;;;;;6131676;23;20381;-92
2023/05/21 05:28:24;;;;;;;1.50;0.30;;;13.30;99.90;;;;;;6080001;23;20368;-78
2023/05/21 05:30:51;;;;;;;0.30;0.20;;;13.20;99.90;;;;;;6120772;23;20379;-80
2023/05/21 05:33:19;;;;;;;1.75;0.28;;;13.20;99.90;;;;;;6122361;23;20807;-81
2023/05/21 05:35:46;;;;;;;0.60;0.20;;;13.20;99.90;;;;;;6120347;23;20432;-80
2023/05/21 05:38:13;;;;;;;0.30;0.20;;;13.30;99.90;;;;;;6121896;23;20375;-81
2023/05/21 05:40:40;;;;;;;0.35;0.30;;;13.30;99.90;;;;;;6120684;23;20492;-80
2023/05/21 05:43:06;;;;;;;0.38;0.20;;;13.30;99.90;;;;;;6121695;23;20684;-79
2023/05/21 05:45:33;;;;;;;0.70;0.30;;;13.30;99.90;;;;;;6120418;23;20368;-80
2023/05/21 05:48:01;;;;;;;0.38;0.20;;;13.30;99.90;;;;;;6121446;23;20367;-79
2023/05/21 05:50:28;;;;;;;0.20;0.10;;;13.30;99.90;;;;;;6121224;23;20701;-80
2023/05/21 05:52:55;;;;;;;0.88;0.20;;;13.20;99.90;;;;;;6121559;23;20376;-80
2023/05/21 05:55:23;;;;;;;0.70;0.20;;;13.20;99.90;;;;;;6121243;23;20380;-80
2023/05/21 05:57:50;;;;;;;1.13;0.30;;;13.30;99.90;;;;;;6122277;23;20372;-80
2023/05/21 06:00:18;;;;;;;1.77;0.30;;;13.30;99.90;;;;;;6121352;23;20376;-80
2023/05/21 06:02:46;;;;;;;0.45;0.15;;;13.30;99.90;;;;;;6120646;23;20384;-81
2023/05/21 06:05:14;;;;;;;0.85;0.40;;;13.30;99.90;;;;;;6121379;23;20371;-81
2023/05/21 06:07:41;;;;;;;1.98;0.20;;;13.20;99.90;;;;;;6120843;23;20382;-80
2023/05/21 06:10:08;;;;;;;0.35;0.20;;;13.30;99.90;;;;;;6122395;23;20458;-81
2023/05/21 06:12:35;;;;;;;0.90;0.20;;;13.30;99.90;;;;;;6120355;23;20403;-79
2023/05/21 06:15:03;;;;;;;0.90;0.20;;;13.30;99.90;;;;;;6121134;23;20391;-80
2023/05/21 06:17:30;;;;;;;0.50;0.20;;;13.30;99.90;;;;;;6121131;23;20384;-78
2023/05/21 06:19:57;;;;;;;1.20;0.30;;;13.30;99.90;;;;;;6119832;23;20383;-79
2023/05/21 06:22:24;;;;;;;1.48;0.30;;;13.40;99.90;;;;;;6121329;23;20710;-78
2023/05/21 06:24:51;;;;;;;1.90;0.30;;;13.40;99.90;;;;;;6119875;23;20736;-78
2023/05/21 06:27:18;;;;;;;0.30;0.20;;;13.40;99.90;;;;;;6120940;23;20679;-79
2023/05/21 06:29:45;;;;;;;0.30;0.20;;;13.40;99.90;;;;;;6120289;23;20387;-78
2023/05/21 06:32:12;;;;;;;0.20;0.10;;;13.40;99.90;;;;;;6123020;23;20394;-78
2023/05/21 06:34:39;;;;;;;0.20;0.10;;;13.40;99.90;;;;;;6121847;23;20443;-79
2023/05/21 06:37:06;;;;;;;0.20;0.20;;;13.40;99.90;;;;;;6122762;23;20376;-78
2023/05/21 06:39:33;;;;;;;0.30;0.20;;;13.40;99.90;;;;;;6122298;23;20376;-78
2023/05/21 06:42:00;;;;;;;0.43;0.20;;;13.50;99.90;;;;;;6122353;23;20458;-79
2023/05/21 06:44:27;;;;;;;0.40;0.20;;;13.50;99.90;;;;;;6121668;23;20849;-79
2023/05/21 06:46:54;;;;;;;0.50;0.20;;;13.50;99.90;;;;;;6121915;23;20729;-79
2023/05/21 06:49:21;;;;;;;0.20;0.20;;;13.50;99.90;;;;;;6124598;23;20383;-79
2023/05/21 06:51:48;;;;;;;1.38;0.30;;;13.50;99.90;;;;;;6122193;23;20378;-80
2023/05/21 06:54:15;;;;;;;0.70;0.40;;;13.50;99.90;;;;;;6122793;23;20924;-79
2023/05/21 06:56:41;;;;;;;0.40;0.20;;;13.50;99.90;;;;;;6121669;23;20686;-80
2023/05/21 06:59:09;;;;;;;0.50;0.30;;;13.50;99.90;;;;;;6122751;23;20398;-79
2023/05/21 07:01:36;;;;;;;1.20;0.40;;;13.50;99.90;;;;;;6122757;23;20384;-79
2023/05/21 07:04:03;;;;;;;1.10;0.20;;;13.50;99.90;;;;;;6122055;23;20430;-80
2023/05/21 07:06:30;;;;;;;1.05;0.30;;;13.50;99.90;;;;;;6122978;23;20435;-80
2023/05/21 07:08:57;;;;;;;0.43;0.30;;;13.50;99.90;;;;;;6121679;23;20502;-80
2023/05/21 07:11:27;;;;;;;0.70;0.20;;;13.50;99.90;;;;;;6122716;23;20750;-79
2023/05/21 07:13:57;;;;;;;1.40;0.40;;;13.50;99.90;;;;;;6121510;23;20380;-80
2023/05/21 07:16:24;;;;;;;0.35;0.20;;;13.50;99.90;;;;;;6122604;23;20376;-79
2023/05/21 07:18:51;;;;;;;3.00;0.30;;;13.50;99.90;;;;;;6121859;23;20372;-79
2023/05/21 07:21:18;;;;;;;0.82;0.20;;;13.60;99.90;;;;;;6115919;23;20436;-81
2023/05/21 07:23:45;;;;;;;1.05;0.40;;;13.50;99.90;;;;;;6121618;23;20453;-79
2023/05/21 07:26:12;;;;;;;0.43;0.22;;;13.50;99.90;;;;;;6121941;23;20371;-80
2023/05/21 07:28:39;;;;;;;1.00;0.30;;;13.50;99.90;;;;;;6130248;23;20394;-82
2023/05/21 07:31:07;;;;;;;1.48;0.40;;;13.50;99.90;;;;;;6125574;23;20370;-81
2023/05/21 07:33:34;;;;;;;0.30;0.30;;;13.50;99.90;;;;;;6127430;23;20415;-79
2023/05/21 07:36:01;;;;;;;0.40;0.30;;;13.50;99.90;;;;;;6151876;23;20375;-80
2023/05/21 07:38:28;;;;;;;0.57;0.30;;;13.50;99.90;;;;;;6127283;23;20751;-79
2023/05/21 07:40:56;;;;;;;0.90;0.40;;;13.50;99.90;;;;;;6126156;23;20409;-80
2023/05/21 07:43:23;;;;;;;0.70;0.30;;;13.50;99.90;;;;;;6126986;23;20381;-80
2023/05/21 07:45:50;;;;;;;0.50;0.30;;;13.50;99.90;;;;;;6126138;23;20685;-80
2023/05/21 07:48:17;;;;;;;0.40;0.20;;;13.50;99.90;;;;;;6127066;23;20369;-81
2023/05/21 07:50:48;;;;;;;1.25;0.20;;;13.60;99.90;;;;;;6126497;23;20772;-81
2023/05/21 07:53:15;;;;;;;0.70;0.30;;;13.60;99.90;;;;;;6127935;23;20433;-79
2023/05/21 07:55:46;;;;;;;0.40;0.28;;;13.60;99.90;;;;;;6127452;23;20704;-79
2023/05/21 07:58:15;;;;;;;0.90;0.30;;;13.60;99.90;;;;;;6125885;23;20381;-79
2023/05/21 08:00:46;;;;;;;0.80;0.30;;;13.70;99.90;;;;;;6151418;23;20385;-78
2023/05/21 08:03:17;;;;;;;0.70;0.30;;;13.70;99.90;;;;;;6150420;23;20673;-79
2023/05/21 08:05:47;;;;;;;0.75;0.30;;;13.80;99.90;;;;;;6151439;23;20884;-80
2023/05/21 08:08:18;;;;;;;0.63;0.38;;;13.80;99.90;;;;;;6150383;23;20740;-79
2023/05/21 08:10:46;;;;;;;0.53;0.40;;;13.80;99.90;;;;;;6151282;23;20408;-82
2023/05/21 08:13:15;;;;;;;0.83;0.40;;;13.80;99.90;;;;;;6126258;23;20362;-81
2023/05/21 08:15:42;;;;;;;0.70;0.40;;;13.80;99.90;;;;;;6151636;23;20374;-80
2023/05/21 08:18:10;;;;;;;1.15;0.30;;;13.80;99.90;;;;;;6150449;23;20409;-80
2023/05/21 08:20:37;;;;;;;1.20;0.40;;;13.80;99.90;;;;;;6126970;23;20835;-80
2023/05/21 08:23:04;;;;;;;1.10;0.30;;;13.80;99.90;;;;;;6126122;23;20409;-81
2023/05/21 08:25:31;;;;;;;0.60;0.30;;;13.80;99.90;;;;;;6126758;23;20373;-81
2023/05/21 08:27:59;;;;;;;0.70;0.40;;;13.90;99.90;;;;;;6151889;23;20366;-81
2023/05/21 08:30:26;;;;;;;0.57;0.40;;;13.90;99.90;;;;;;6121933;23;20702;-80
2023/05/21 08:32:53;;;;;;;2.15;0.85;;;13.90;99.90;;;;;;6122539;23;20386;-82
2023/05/21 08:35:21;;;;;;;1.87;0.67;;;14.00;99.90;;;;;;6122292;23;20679;-80
2023/05/21 08:37:48;;;;;;;1.55;0.70;;;14.00;99.90;;;;;;6122031;23;20414;-80
2023/05/21 08:40:15;;;;;;;1.20;0.40;;;14.10;99.90;;;;;;6121073;23;20399;-81
2023/05/21 08:42:45;;;;;;;0.70;0.30;;;14.20;99.90;;;;;;6121106;23;20709;-79
2023/05/21 08:45:13;;;;;;;0.98;0.40;;;14.20;99.90;;;;;;6122529;23;20386;-83
2023/05/21 08:47:45;;;;;;;1.58;0.50;;;14.20;99.90;;;;;;6122074;23;20380;-81
2023/05/21 08:50:15;;;;;;;0.75;0.50;;;14.20;99.90;;;;;;6120681;23;20758;-82
2023/05/21 08:52:42;;;;;;;1.20;0.43;;;14.30;99.90;;;;;;6121484;23;20383;-82
2023/05/21 08:55:09;;;;;;;0.95;0.63;;;14.30;99.90;;;;;;6121133;23;20378;-82
2023/05/21 08:57:36;;;;;;;0.70;0.50;;;14.30;99.90;;;;;;6121212;23;20455;-82
2023/05/21 09:00:05;;;;;;;1.17;0.40;;;14.30;99.90;;;;;;6121075;23;20384;-82
2023/05/21 09:02:33;;;;;;;1.17;0.40;;;14.30;99.90;;;;;;6123205;23;20380;-82
2023/05/21 09:05:02;;;;;;;0.60;0.50;;;14.30;99.90;;;;;;6120724;23;20754;-81
2023/05/21 09:07:33;;;;;;;0.77;0.52;;;14.40;99.90;;;;;;6121938;23;20387;-81
2023/05/21 09:10:09;;;;;;;1.00;0.50;;;14.40;99.90;;;;;;6120555;23;20395;-82
2023/05/21 09:12:36;;;;;;;1.23;0.40;;;14.40;99.90;;;;;;6122136;23;20375;-82
2023/05/21 09:15:04;;;;;;;0.70;0.40;;;14.50;99.90;;;;;;6122243;23;20380;-82
2023/05/21 09:17:31;;;;;;;0.47;0.32;;;14.40;99.90;;;;;;6121797;23;20386;-81
2023/05/21 09:20:15;;;;;;;1.23;0.40;;;14.50;99.90;;;;;;6121028;23;20903;-82
2023/05/21 09:22:47;;;;;;;1.00;0.40;;;14.40;99.90;;;;;;6119733;23;20387;-83
2023/05/21 09:25:28;;;;;;;0.63;0.40;;;14.40;99.90;;;;;;6117000;23;20430;-83
2023/05/21 09:27:55;;;;;;;1.40;0.52;;;14.50;99.90;;;;;;6118389;23;21233;-82
2023/05/21 09:30:22;;;;;;;1.50;0.40;;;14.50;99.90;;;;;;6091198;23;20383;-81
2023/05/21 09:32:58;;;;;;;0.95;0.40;;;14.40;99.90;;;;;;6119367;23;20386;-81
2023/05/21 09:35:26;;;;;;;1.13;0.40;;;14.40;99.90;;;;;;6121013;23;20438;-81
2023/05/21 09:37:53;;;;;;;1.38;0.70;;;14.50;99.90;;;;;;6118372;23;20375;-81
2023/05/21 09:40:22;;;;;;;0.55;0.50;;;14.50;99.90;;;;;;6120545;23;20379;-79
2023/05/21 09:42:51;;;;;;;1.83;0.50;;;14.50;99.90;;;;;;6119394;23;20715;-81
2023/05/21 09:45:22;;;;;;;0.68;0.40;;;14.60;99.90;;;;;;6118685;23;20384;-81
2023/05/21 09:47:51;;;;;;;1.42;0.50;;;14.50;99.90;;;;;;6120198;23;20382;-81
2023/05/21 09:50:23;;;;;;;0.80;0.40;;;14.50;99.90;;;;;;6120345;23;20387;-81
2023/05/21 09:52:54;;;;;;;0.80;0.47;;;14.50;99.90;;;;;;6120375;23;20376;-80
2023/05/21 09:55:22;;;;;;;0.52;0.50;;;14.60;99.90;;;;;;6116933;23;20455;-83
2023/05/21 09:57:51;;;;;;;1.40;0.60;;;14.50;99.90;;;;;;6120286;23;20387;-83
2023/05/21 10:00:26;;;;;;;1.08;0.40;;;14.50;99.90;;;;;;6116178;23;20376;-80
2023/05/21 10:02:55;;;;;;;1.10;0.40;;;14.40;99.90;;;;;;6119717;23;20392;-81
2023/05/21 10:05:28;;;;;;;0.85;0.50;;;14.40;99.90;;;;;;6121069;23;20375;-83
2023/05/21 10:08:02;;;;;;;1.73;0.47;;;14.40;99.90;;;;;;6120966;23;20391;-83
2023/05/21 10:10:31;;;;;;;0.75;0.50;;;14.40;99.90;;;;;;6121945;23;20386;-82
2023/05/21 10:13:03;;;;;;;1.23;0.60;;;14.40;99.90;;;;;;6122218;23;20385;-81
2023/05/21 10:15:42;;;;;;;1.13;0.65;;;14.40;99.90;;;;;;6122362;23;20368;-81
2023/05/21 10:18:11;;;;;;;1.75;0.60;;;14.40;99.90;;;;;;6121965;23;20722;-80
2023/05/21 10:20:39;;;;;;;1.67;0.60;;;14.40;99.90;;;;;;6122603;23;20376;-80
2023/05/21 10:23:06;;;;;;;1.38;0.88;;;14.40;99.90;;;;;;6122272;23;20398;-81
2023/05/21 10:25:35;;;;;;;0.90;0.50;;;14.40;99.90;;;;;;6122742;23;20371;-80
2023/05/21 10:28:02;;;;;;;0.88;0.68;;;14.40;99.90;;;;;;6122436;23;20403;-81
2023/05/21 10:30:29;;;;;;;0.90;0.47;;;14.40;99.90;;;;;;6121615;23;20367;-81
2023/05/21 10:32:58;;;;;;;1.33;0.70;;;14.40;99.90;;;;;;6122954;23;20386;-81
2023/05/21 10:35:27;;;;;;;1.20;0.60;;;14.40;99.90;;;;;;6121247;23;20446;-81
2023/05/21 10:37:56;;;;;;;1.30;0.60;;;14.40;99.90;;;;;;6123824;23;20379;-81
2023/05/21 10:40:23;;;;;;;0.63;0.52;;;14.40;99.90;;;;;;6121399;23;20383;-80
2023/05/21 10:43:08;;;;;;;1.48;0.60;;;14.40;99.90;;;;;;6122553;23;20375;-81
2023/05/21 10:46:05;;;;;;;0.85;0.50;;;14.40;99.90;;;;;;6123494;23;20431;-81
2023/05/21 10:48:49;;;;;;;1.55;0.50;;;14.40;99.90;;;;;;6122975;23;20430;-81
2023/05/21 10:51:24;;;;;;;0.70;0.52;;;14.40;99.90;;;;;;6121229;23;20384;-80
2023/05/21 10:54:06;;;;;;;1.17;0.70;;;14.40;99.90;;;;;;6121782;23;20386;-79
2023/05/21 10:56:47;;;;;;;1.25;0.77;;;14.40;99.90;;;;;;6120757;23;20391;-81
2023/05/21 10:59:27;;;;;;;2.10;0.50;;;14.40;99.90;;;;;;6121731;23;20378;-80
2023/05/21 11:01:55;;;;;;;1.60;0.75;;;14.50;99.90;;;;;;6122339;23;20494;-81
2023/05/21 11:04:25;;;;;;;1.27;0.65;;;14.50;99.90;;;;;;6121621;23;20382;-81
2023/05/21 11:06:53;;;;;;;1.88;0.60;;;14.50;99.90;;;;;;6122824;23;20438;-80
2023/05/21 11:09:19;;;;;;;1.05;0.60;;;14.60;99.90;;;;;;6121071;23;20384;-81
2023/05/21 11:11:57;;;;;;;1.52;0.80;;;14.60;99.90;;;;;;6122624;23;20372;-80
2023/05/21 11:14:41;;;;;;;1.63;0.60;;;14.60;99.90;;;;;;6122657;23;20766;-82
2023/05/21 11:17:08;;;;;;;1.23;0.50;;;14.70;99.90;;;;;;6122798;23;20382;-80
2023/05/21 11:19:43;;;;;;;1.10;0.80;;;14.60;99.90;;;;;;6121191;23;20438;-79
2023/05/21 11:22:22;;;;;;;1.93;1.00;;;14.60;99.90;;;;;;6120084;23;20384;-79
2023/05/21 11:24:50;;;;;;;1.80;0.70;;;14.70;99.90;;;;;;6121128;23;20683;-80
2023/05/21 11:27:32;;;;;;;0.90;0.55;;;14.70;99.90;;;;;;6123915;23;20791;-82
2023/05/21 11:30:02;;;;;;;1.90;0.60;;;14.70;99.90;;;;;;6121425;23;20380;-82
2023/05/21 11:32:30;;;;;;;0.80;0.60;;;14.80;99.90;;;;;;6122487;23;20497;-81
2023/05/21 11:35:02;;;;;;;0.70;0.50;;;14.80;99.90;;;;;;6122636;23;20364;-82
2023/05/21 11:37:32;;;;;;;2.10;0.65;;;14.80;99.90;;;;;;6123881;23;20850;-81
2023/05/21 11:40:19;;;;;;;1.73;0.80;;;14.90;99.90;;;;;;6120954;23;20379;-82
2023/05/21 11:42:51;;;;;;;2.00;0.82;;;15.00;99.90;;;;;;6121267;23;20389;-81
2023/05/21 11:45:20;;;;;;;1.00;0.80;;;15.00;99.90;;;;;;6122563;23;20382;-81
2023/05/21 11:47:48;;;;;;;1.17;0.73;;;15.00;99.90;;;;;;6121713;23;20421;-82
2023/05/21 11:50:16;;;;;;;2.43;0.80;;;15.00;99.90;;;;;;6122393;23;20415;-82
2023/05/21 11:52:45;;;;;;;2.40;1.63;;;15.00;99.90;;;;;;6121358;23;20462;-82
2023/05/21 11:55:14;;;;;;;2.50;1.70;;;14.90;99.90;;;;;;6122345;23;20375;-81
2023/05/21 11:57:43;;;;;;;2.08;1.58;;;14.90;99.90;;;;;;6122884;23;20758;-82
2023/05/21 12:00:15;;;;;;;2.20;1.50;;;14.90;99.90;;;;;;6122441;23;20422;-82
2023/05/21 12:02:50;;;;;;;2.55;1.25;;;14.90;99.90;;;;;;6121362;23;20762;-82
2023/05/21 12:05:17;;;;;;;2.45;1.40;;;14.80;99.90;;;;;;6121684;23;20407;-82
2023/05/21 12:07:48;;;;;;;1.40;0.93;;;14.80;99.90;;;;;;6121289;23;20683;-81
2023/05/21 12:10:19;;;;;;;1.88;1.02;;;14.90;99.90;;;;;;6122399;23;20433;-81
2023/05/21 12:12:46;;;;;;;1.58;0.80;;;14.90;99.90;;;;;;6120863;23;20371;-82
2023/05/21 12:15:23;;;;;;;2.45;1.00;;;14.80;99.90;;;;;;6122683;23;20383;-81
2023/05/21 12:17:51;;;;;;;1.30;0.80;;;14.90;99.90;;;;;;6121277;23;20754;-81
2023/05/21 12:20:19;;;;;;;1.20;0.70;;;14.90;99.90;;;;;;6122023;23;20713;-82
2023/05/21 12:22:48;;;;;;;1.85;0.95;;;14.90;99.90;;;;;;6120464;23;20431;-82
2023/05/21 12:25:19;;;;;;;2.60;0.90;;;14.90;99.90;;;;;;6123601;23;20387;-82
2023/05/21 12:27:51;;;;;;;1.30;0.60;;;14.90;99.90;;;;;;6120317;23;20483;-82
2023/05/21 12:30:19;;;;;;;0.93;0.60;;;14.90;99.90;;;;;;6121707;23;20398;-82
2023/05/21 12:32:50;;;;;;;0.70;0.60;;;14.90;99.90;;;;;;6120741;23;20387;-81
2023/05/21 12:35:24;;;;;;;1.92;0.80;;;14.90;99.90;;;;;;6122253;23;20376;-82
2023/05/21 12:37:51;;;;;;;1.88;0.70;;;14.90;99.90;;;;;;6121123;23;20390;-81
2023/05/21 12:40:19;;;;;;;2.67;1.20;;;14.90;99.90;;;;;;6121763;23;20388;-81
2023/05/21 12:42:46;;;;;;;1.30;1.13;;;14.90;99.90;;;;;;6120911;23;20384;-81
2023/05/21 12:45:13;;;;;;;1.83;0.85;;;14.90;99.90;;;;;;6122787;23;20383;-82
2023/05/21 12:47:40;;;;;;;1.50;1.05;;;14.90;99.90;;;;;;6120640;23;20383;-82
2023/05/21 12:50:10;;;;;;;3.28;1.50;;;14.90;99.90;;;;;;6121108;23;20380;-82
2023/05/21 12:52:41;;;;;;;1.58;0.80;;;14.90;99.90;;;;;;6121943;23;20383;-83
2023/05/21 12:55:11;;;;;;;3.08;1.00;;;14.90;99.90;;;;;;6121111;23;20451;-83
2023/05/21 12:57:38;;;;;;;1.75;0.85;;;15.00;99.90;;;;;;6121850;23;20375;-81
2023/05/21 13:00:06;;;;;;;1.50;0.95;;;15.00;99.90;;;;;;6121886;23;20383;-82
2023/05/21 13:02:41;;;;;;;1.50;0.93;;;15.00;99.90;;;;;;6123150;23;20463;-83
2023/05/21 13:05:16;;;;;;;1.60;1.10;;;15.00;99.90;;;;;;6122187;23;20426;-82
2023/05/21 13:07:45;;;;;;;1.70;0.93;;;15.00;99.90;;;;;;6123200;23;20383;-81
2023/05/21 13:10:15;;;;;;;1.92;0.93;;;15.00;99.90;;;;;;6121112;23;20714;-81
2023/05/21 13:12:43;;;;;;;1.98;1.05;;;15.10;99.90;;;;;;6123124;23;20380;-83
2023/05/21 13:15:10;;;;;;;1.70;0.60;;;15.10;99.90;;;;;;6121051;23;20383;-83
2023/05/21 13:17:38;;;;;;;1.17;0.90;;;15.10;99.90;;;;;;6123215;23;20378;-82
2023/05/21 13:20:20;;;;;;;1.45;0.80;;;15.00;99.90;;;;;;6120640;23;20438;-80
2023/05/21 13:22:50;;;;;;;1.10;0.80;;;15.00;99.90;;;;;;6121024;23;20501;-82
2023/05/21 13:25:23;;;;;;;1.08;0.80;;;15.00;99.90;;;;;;6120953;23;20378;-81
2023/05/21 13:27:51;;;;;;;1.23;0.77;;;15.00;99.90;;;;;;6121405;23;20371;-81
2023/05/21 13:30:19;;;;;;;1.55;1.08;;;15.00;99.90;;;;;;6120501;23;20461;-81
2023/05/21 13:32:47;;;;;;;2.00;1.10;;;15.00;99.90;;;;;;6121139;23;20382;-81
2023/05/21 13:35:15;;;;;;;2.00;1.10;;;15.00;99.90;;;;;;6120783;23;20380;-79
2023/05/21 13:37:43;;;;;;;1.47;1.03;;;15.00;99.90;;;;;;6121875;23;20407;-83
2023/05/21 13:40:13;;;;;;;2.90;1.70;;;15.00;99.90;;;;;;6120971;23;20383;-82
2023/05/21 13:42:46;;;;;;;2.55;1.40;;;15.10;99.90;;;;;;6123283;23;20450;-84
2023/05/21 13:45:16;;;;;;;3.05;1.40;;;15.10;99.90;;;;;;6120483;23;20372;-83
2023/05/21 13:47:44;;;;;;;2.40;1.85;;;15.10;99.90;;;;;;6121285;23;20376;-82
2023/05/21 13:50:13;;;;;;;1.90;1.30;;;15.20;99.90;;;;;;6096078;23;20404;-81
2023/05/21 13:52:40;;;;;;;2.70;1.00;;;15.20;99.90;;;;;;6121387;23;20706;-82
2023/05/21 13:55:08;;;;;;;1.57;1.07;;;15.20;99.90;;;;;;6120141;23;20900;-81
2023/05/21 13:57:35;;;;;;;1.50;0.80;;;15.30;99.90;;;;;;6123531;23;20372;-81
2023/05/21 14:00:03;;;;;;;1.77;0.98;;;15.30;99.90;;;;;;6119191;23;20376;-82
2023/05/21 14:02:30;;;;;;;1.08;0.85;;;15.40;99.90;;;;;;6121654;23;20379;-79
2023/05/21 14:04:57;;;;;;;1.50;0.90;;;15.40;99.90;;;;;;6120110;23;20376;-80
2023/05/21 14:07:25;;;;;;;2.67;1.20;;;15.50;99.90;;;;;;6121381;23;20713;-82
2023/05/21 14:09:52;;;;;;;1.65;1.30;;;15.60;99.90;;;;;;6121246;23;20388;-82
2023/05/21 14:12:19;;;;;;;1.80;1.43;;;15.60;99.90;;;;;;6120207;23;20380;-79
2023/05/21 14:14:48;;;;;;;3.22;1.55;;;15.60;99.90;;;;;;6121408;23;20380;-83
2023/05/21 14:17:15;;;;;;;1.92;1.38;;;15.60;99.90;;;;;;6120823;23;20380;-83
2023/05/21 14:19:42;;;;;;;1.75;1.65;;;15.70;99.90;;;;;;6120889;23;20435;-83
2023/05/21 14:22:10;;;;;;;2.55;2.00;;;15.70;99.90;;;;;;6121512;23;20390;-83
2023/05/21 14:24:36;;;;;;;1.85;1.52;;;15.70;99.90;;;;;;6121589;23;20383;-83
2023/05/21 14:27:03;;;;;;;2.92;1.85;;;15.70;99.90;;;;;;6120410;23;20408;-83
2023/05/21 14:29:32;;;;;;;3.63;1.88;;;15.70;99.90;;;;;;6121513;23;20380;-81
2023/05/21 14:31:58;;;;;;;3.40;2.30;;;15.70;99.90;;;;;;6120013;23;20434;-81
2023/05/21 14:34:25;;;;;;;3.60;2.60;;;15.70;99.90;;;;;;6120835;23;20435;-82
2023/05/21 14:36:52;;;;;;;4.10;2.42;;;15.70;99.90;;;;;;6120251;23;20443;-82
2023/05/21 14:39:19;;;;;;;3.17;2.23;;;15.80;99.90;;;;;;6119975;23;20385;-82
2023/05/21 14:41:46;;;;;;;2.80;2.10;;;15.80;99.90;;;;;;6122689;23;20795;-80
2023/05/21 14:44:13;;;;;;;2.80;2.17;;;15.90;99.90;;;;;;6120166;23;20484;-81
2023/05/21 14:46:40;;;;;;;3.50;2.30;;;15.90;99.90;;;;;;6121724;23;20427;-82
2023/05/21 14:49:07;;;;;;;3.25;2.03;;;15.90;99.90;;;;;;6120191;23;20371;-82
2023/05/21 14:51:34;;;;;;;3.30;2.60;;;15.90;99.90;;;;;;6122562;23;20384;-82
2023/05/21 14:54:01;;;;;;;3.13;2.72;;;16.00;99.90;;;;;;6121589;23;20380;-82
2023/05/21 14:56:28;;;;;;;3.40;2.20;;;16.00;99.90;;;;;;6122231;23;20406;-82
2023/05/21 14:58:55;;;;;;;4.28;2.92;;;16.00;99.90;;;;;;6122668;23;20682;-83
2023/05/21 15:01:22;;;;;;;2.47;1.75;;;16.10;99.90;;;;;;6122821;23;20694;-82
2023/05/21 15:03:49;;;;;;;2.05;1.80;;;16.10;99.90;;;;;;6098946;23;20387;-82
2023/05/21 15:06:17;;;;;;;1.63;1.20;;;16.10;99.90;;;;;;6121577;23;20382;-85
2023/05/21 15:08:44;;;;;;;1.60;1.20;;;16.20;99.90;;;;;;6122627;23;20706;-82
2023/05/21 15:11:11;;;;;;;1.90;1.40;;;16.20;99.90;;;;;;6119963;23;20388;-82
2023/05/21 15:13:38;;;;;;;2.42;1.60;;;16.20;99.90;;;;;;6114165;23;20379;-82
2023/05/21 15:16:05;;;;;;;3.15;1.40;;;16.20;99.90;;;;;;6122455;23;20376;-83
2023/05/21 15:18:32;;;;;;;2.85;1.50;;;16.20;99.90;;;;;;6123066;23;20368;-83
2023/05/21 15:21:02;;;;;;;3.72;1.85;;;16.30;99.90;;;;;;6114131;23;20405;-82
2023/05/21 15:23:29;;;;;;;2.00;1.90;;;16.30;99.90;;;;;;6123577;23;20742;-83
2023/05/21 15:25:55;;;;;;;2.85;1.98;;;16.40;99.90;;;;;;6124011;23;20434;-83
2023/05/21 15:28:22;;;;;;;2.80;1.83;;;16.50;99.90;;;;;;6124486;23;20375;-84
2023/05/21 15:30:49;;;;;;;2.80;1.90;;;16.60;99.90;;;;;;6127510;23;20390;-82
2023/05/21 15:33:16;;;;;;;2.30;1.80;;;16.60;99.90;;;;;;6127253;23;20420;-84
2023/05/21 15:35:43;;;;;;;2.50;1.98;;;16.70;99.90;;;;;;6153715;23;20371;-83
2023/05/21 15:38:11;;;;;;;2.83;1.95;;;16.70;99.90;;;;;;6127131;23;20406;-82
2023/05/21 15:40:40;;;;;;;2.58;2.25;;;16.80;99.90;;;;;;6127576;23;20469;-81
2023/05/21 15:43:07;;;;;;;4.00;2.70;;;16.80;99.90;;;;;;6151739;23;20374;-82
2023/05/21 15:45:34;;;;;;;2.85;2.35;;;16.80;99.90;;;;;;6127610;23;20370;-83
2023/05/21 15:48:01;;;;;;;2.75;2.40;;;16.80;99.90;;;;;;6126904;23;20378;-83
2023/05/21 15:50:28;;;;;;;15.90;6.93;;;16.80;99.90;;;;;;6126997;23;20358;-83
2023/05/21 15:52:55;;;;;;;6.88;4.53;;;16.90;99.90;;;;;;6128121;23;20425;-84
2023/05/21 15:55:22;;;;;;;3.38;2.17;;;16.90;99.90;;;;;;6126269;23;20374;-85
2023/05/21 15:57:49;;;;;;;2.50;1.73;;;16.90;99.90;;;;;;6127712;23;20374;-82
2023/05/21 16:00:16;;;;;;;2.37;2.17;;;17.00;99.90;;;;;;6126601;23;20434;-83
2023/05/21 16:02:43;;;;;;;1.95;1.70;;;17.00;99.90;;;;;;6126295;23;20433;-81
2023/05/21 16:05:10;;;;;;;2.55;1.92;;;17.00;99.90;;;;;;6126882;23;20406;-81
2023/05/21 16:07:37;;;;;;;2.25;1.98;;;17.10;99.90;;;;;;6126744;23;20374;-84
2023/05/21 16:10:05;;;;;;;3.17;1.75;;;17.20;99.90;;;;;;6151715;23;20401;-83
2023/05/21 16:12:32;;;;;;;1.70;1.30;;;17.40;99.90;;;;;;6125801;23;20374;-81
2023/05/21 16:14:59;;;;;;;2.15;1.50;;;17.50;99.90;;;;;;6126343;23;20444;-82
2023/05/21 16:17:26;;;;;;;2.13;1.52;;;17.60;99.90;;;;;;6126590;23;20434;-84
2023/05/21 16:19:53;;;;;;;2.22;1.67;;;17.60;99.90;;;;;;6152503;23;20414;-83
2023/05/21 16:22:21;;;;;;;2.20;1.70;;;17.70;99.90;;;;;;6126048;23;20445;-83
2023/05/21 16:24:49;;;;;;;2.85;1.58;;;17.80;99.90;;;;;;6127086;23;20461;-81
2023/05/21 16:27:16;;;;;;;1.63;1.40;;;17.90;99.90;;;;;;6126473;23;20401;-82
2023/05/21 16:29:43;;;;;;;2.40;1.48;;;18.00;99.90;;;;;;6126742;23;20377;-83
2023/05/21 16:32:12;;;;;;;3.53;1.50;;;18.10;99.60;;;;;;6150358;23;20856;-83
2023/05/21 16:34:39;;;;;;;1.60;1.38;;;18.20;98.10;;;;;;6127355;23;20381;-85
2023/05/21 16:37:12;;;;;;;1.85;1.65;;;18.20;98.90;;;;;;6126819;23;20411;-84
2023/05/21 16:39:38;;;;;;;3.85;1.95;;;18.30;97.70;;;;;;6152188;23;20418;-83
2023/05/21 16:42:05;;;;;;;2.40;1.40;;;18.20;97.30;;;;;;6126501;23;20382;-82
2023/05/21 16:44:32;;;;;;;2.53;1.60;;;18.20;96.60;;;;;;6127225;23;20453;-84
2023/05/21 16:47:00;;;;;;;2.35;1.85;;;18.10;97.50;;;;;;6127365;23;20848;-84
2023/05/21 16:49:27;;;;;;;3.30;1.70;;;17.90;98.00;;;;;;6126538;23;20374;-84
2023/05/21 16:51:54;;;;;;;2.50;1.77;;;17.90;98.90;;;;;;6127161;23;20405;-84
2023/05/21 16:54:21;;;;;;;1.63;1.40;;;17.80;99.30;;;;;;6128376;23;20756;-82
2023/05/21 16:56:48;;;;;;;2.05;1.48;;;17.80;98.50;;;;;;6126682;23;20766;-84
2023/05/21 16:59:15;;;;;;;1.92;1.45;;;17.80;99.00;;;;;;6126866;23;20385;-82
2023/05/21 17:01:42;;;;;;;2.35;1.75;;;17.70;98.90;;;;;;6125928;23;20429;-84
2023/05/21 17:04:09;;;;;;;2.15;1.55;;;17.70;98.60;;;;;;6126840;23;20435;-83
2023/05/21 17:06:36;;;;;;;2.05;1.55;;;17.70;98.50;;;;;;6125672;23;20398;-84
2023/05/21 17:09:05;;;;;;;2.45;1.58;;;17.70;99.50;;;;;;6126998;23;20855;-83
2023/05/21 17:11:33;;;;;;;2.95;1.63;;;17.70;98.70;;;;;;6125129;23;20382;-84
2023/05/21 17:14:00;;;;;;;2.65;1.60;;;17.70;99.40;;;;;;6126710;23;20767;-83
2023/05/21 17:16:27;;;;;;;3.78;1.65;;;17.70;99.00;;;;;;6125033;23;20398;-83
2023/05/21 17:18:54;;;;;;;2.80;1.65;;;17.60;99.40;;;;;;6127100;23;20840;-81
2023/05/21 17:21:21;;;;;;;2.83;1.42;;;17.60;99.10;;;;;;6125426;23;20442;-82